sensor_id;sensor_type;location;lat;lon;timestamp;P1;durP1;ratioP1;P2;durP2;ratioP2
57029;SDS011;42920;45.306;20.448;2023-09-19T00:00:21;9.15;;;3.85;;
57029;SDS011;42920;45.306;20.448;2023-09-19T00:02:53;6.68;;;3.97;;
57029;SDS011;42920;45.306;20.448;2023-09-19T00:07:53;11.13;;;4.53;;
57029;SDS011;42920;45.306;20.448;2023-09-19T00:10:22;9.82;;;3.72;;
57029;SDS011;42920;45.306;20.448;2023-09-19T00:12:50;6.45;;;4.32;;
57029;SDS011;42920;45.306;20.448;2023-09-19T00:15:17;8.32;;;4.90;;
57029;SDS011;42920;45.306;20.448;2023-09-19T00:17:44;12.55;;;4.78;;
57029;SDS011;42920;45.306;20.448;2023-09-19T00:20:10;7.35;;;4.43;;
57029;SDS011;42920;45.306;20.448;2023-09-19T00:22:41;11.95;;;4.93;;
57029;SDS011;42920;45.306;20.448;2023-09-19T00:25:08;6.65;;;3.97;;
57029;SDS011;42920;45.306;20.448;2023-09-19T00:27:35;10.20;;;4.07;;
57029;SDS011;42920;45.306;20.448;2023-09-19T00:30:06;7.18;;;4.43;;
57029;SDS011;42920;45.306;20.448;2023-09-19T00:32:39;10.55;;;4.78;;
57029;SDS011;42920;45.306;20.448;2023-09-19T00:35:06;7.03;;;3.75;;
57029;SDS011;42920;45.306;20.448;2023-09-19T00:37:34;15.20;;;4.22;;
57029;SDS011;42920;45.306;20.448;2023-09-19T00:40:01;8.85;;;4.38;;
57029;SDS011;42920;45.306;20.448;2023-09-19T00:42:28;6.07;;;4.07;;
57029;SDS011;42920;45.306;20.448;2023-09-19T00:44:54;8.52;;;4.68;;
57029;SDS011;42920;45.306;20.448;2023-09-19T00:47:19;9.75;;;4.95;;
57029;SDS011;42920;45.306;20.448;2023-09-19T00:49:45;6.93;;;4.80;;
57029;SDS011;42920;45.306;20.448;2023-09-19T00:52:14;8.43;;;4.72;;
57029;SDS011;42920;45.306;20.448;2023-09-19T00:54:41;11.98;;;4.85;;
57029;SDS011;42920;45.306;20.448;2023-09-19T00:57:06;10.25;;;5.22;;
57029;SDS011;42920;45.306;20.448;2023-09-19T00:59:34;8.18;;;4.57;;
57029;SDS011;42920;45.306;20.448;2023-09-19T01:02:01;7.07;;;4.97;;
57029;SDS011;42920;45.306;20.448;2023-09-19T01:04:28;10.32;;;4.82;;
57029;SDS011;42920;45.306;20.448;2023-09-19T01:06:54;7.30;;;5.13;;
57029;SDS011;42920;45.306;20.448;2023-09-19T01:09:20;11.00;;;4.82;;
57029;SDS011;42920;45.306;20.448;2023-09-19T01:11:47;9.38;;;5.20;;
57029;SDS011;42920;45.306;20.448;2023-09-19T01:15:17;14.05;;;5.65;;
57029;SDS011;42920;45.306;20.448;2023-09-19T01:20:15;12.70;;;4.60;;
57029;SDS011;42920;45.306;20.448;2023-09-19T01:31:28;7.03;;;4.68;;
57029;SDS011;42920;45.306;20.448;2023-09-19T01:34:01;12.05;;;4.50;;
57029;SDS011;42920;45.306;20.448;2023-09-19T01:36:33;8.77;;;5.22;;
57029;SDS011;42920;45.306;20.448;2023-09-19T01:39:02;8.25;;;5.00;;
57029;SDS011;42920;45.306;20.448;2023-09-19T01:41:39;8.05;;;4.78;;
57029;SDS011;42920;45.306;20.448;2023-09-19T01:44:31;8.77;;;5.10;;
57029;SDS011;42920;45.306;20.448;2023-09-19T01:47:18;8.38;;;4.82;;
57029;SDS011;42920;45.306;20.448;2023-09-19T01:49:53;8.82;;;4.43;;
57029;SDS011;42920;45.306;20.448;2023-09-19T01:52:51;7.53;;;4.90;;
57029;SDS011;42920;45.306;20.448;2023-09-19T01:55:22;9.80;;;5.50;;
57029;SDS011;42920;45.306;20.448;2023-09-19T01:58:01;13.25;;;5.13;;
57029;SDS011;42920;45.306;20.448;2023-09-19T02:00:37;9.02;;;5.32;;
57029;SDS011;42920;45.306;20.448;2023-09-19T02:03:05;10.23;;;5.05;;
57029;SDS011;42920;45.306;20.448;2023-09-19T02:05:32;7.60;;;5.13;;
57029;SDS011;42920;45.306;20.448;2023-09-19T02:07:58;10.20;;;4.97;;
57029;SDS011;42920;45.306;20.448;2023-09-19T02:10:24;13.23;;;5.38;;
57029;SDS011;42920;45.306;20.448;2023-09-19T02:12:50;11.88;;;4.75;;
57029;SDS011;42920;45.306;20.448;2023-09-19T02:15:16;11.30;;;5.78;;
57029;SDS011;42920;45.306;20.448;2023-09-19T02:17:42;12.07;;;5.95;;
57029;SDS011;42920;45.306;20.448;2023-09-19T02:20:09;13.13;;;5.95;;
57029;SDS011;42920;45.306;20.448;2023-09-19T02:22:39;10.85;;;6.35;;
57029;SDS011;42920;45.306;20.448;2023-09-19T02:25:09;14.50;;;6.28;;
57029;SDS011;42920;45.306;20.448;2023-09-19T02:27:36;13.18;;;6.38;;
57029;SDS011;42920;45.306;20.448;2023-09-19T02:30:02;12.07;;;5.40;;
57029;SDS011;42920;45.306;20.448;2023-09-19T02:32:29;12.77;;;5.97;;
57029;SDS011;42920;45.306;20.448;2023-09-19T02:34:56;12.27;;;5.55;;
57029;SDS011;42920;45.306;20.448;2023-09-19T02:37:23;11.43;;;5.93;;
57029;SDS011;42920;45.306;20.448;2023-09-19T02:39:48;8.93;;;5.10;;
57029;SDS011;42920;45.306;20.448;2023-09-19T02:42:14;12.48;;;5.82;;
57029;SDS011;42920;45.306;20.448;2023-09-19T02:44:40;8.30;;;5.38;;
57029;SDS011;42920;45.306;20.448;2023-09-19T02:47:06;9.00;;;5.68;;
57029;SDS011;42920;45.306;20.448;2023-09-19T02:49:31;8.52;;;4.93;;
57029;SDS011;42920;45.306;20.448;2023-09-19T02:51:57;10.68;;;5.53;;
57029;SDS011;42920;45.306;20.448;2023-09-19T02:54:24;10.00;;;5.05;;
57029;SDS011;42920;45.306;20.448;2023-09-19T02:56:50;11.18;;;5.00;;
57029;SDS011;42920;45.306;20.448;2023-09-19T02:59:16;8.82;;;5.40;;
57029;SDS011;42920;45.306;20.448;2023-09-19T03:01:44;10.30;;;5.90;;
57029;SDS011;42920;45.306;20.448;2023-09-19T03:04:13;10.32;;;6.10;;
57029;SDS011;42920;45.306;20.448;2023-09-19T03:06:45;8.55;;;5.25;;
57029;SDS011;42920;45.306;20.448;2023-09-19T03:09:11;14.77;;;6.70;;
57029;SDS011;42920;45.306;20.448;2023-09-19T03:11:37;12.23;;;5.95;;
57029;SDS011;42920;45.306;20.448;2023-09-19T03:14:05;13.05;;;6.32;;
57029;SDS011;42920;45.306;20.448;2023-09-19T03:16:31;12.13;;;5.82;;
57029;SDS011;42920;45.306;20.448;2023-09-19T03:18:56;12.35;;;5.93;;
57029;SDS011;42920;45.306;20.448;2023-09-19T03:21:24;10.60;;;6.28;;
57029;SDS011;42920;45.306;20.448;2023-09-19T03:23:50;10.65;;;6.20;;
57029;SDS011;42920;45.306;20.448;2023-09-19T03:26:16;8.85;;;5.40;;
57029;SDS011;42920;45.306;20.448;2023-09-19T03:28:42;10.90;;;5.78;;
57029;SDS011;42920;45.306;20.448;2023-09-19T03:31:08;14.32;;;5.28;;
57029;SDS011;42920;45.306;20.448;2023-09-19T03:33:35;13.63;;;6.35;;
57029;SDS011;42920;45.306;20.448;2023-09-19T03:36:01;7.60;;;5.25;;
57029;SDS011;42920;45.306;20.448;2023-09-19T03:38:30;9.73;;;5.03;;
57029;SDS011;42920;45.306;20.448;2023-09-19T03:40:57;14.32;;;6.57;;
57029;SDS011;42920;45.306;20.448;2023-09-19T03:43:22;9.65;;;5.22;;
57029;SDS011;42920;45.306;20.448;2023-09-19T03:45:48;11.43;;;6.50;;
57029;SDS011;42920;45.306;20.448;2023-09-19T03:48:15;9.93;;;5.38;;
57029;SDS011;42920;45.306;20.448;2023-09-19T03:50:42;10.10;;;5.47;;
57029;SDS011;42920;45.306;20.448;2023-09-19T03:53:09;11.63;;;5.47;;
57029;SDS011;42920;45.306;20.448;2023-09-19T03:55:34;11.30;;;5.82;;
57029;SDS011;42920;45.306;20.448;2023-09-19T03:58:01;13.38;;;5.55;;
57029;SDS011;42920;45.306;20.448;2023-09-19T04:00:27;7.88;;;5.30;;
57029;SDS011;42920;45.306;20.448;2023-09-19T04:02:54;12.23;;;5.45;;
57029;SDS011;42920;45.306;20.448;2023-09-19T04:05:22;9.32;;;5.10;;
57029;SDS011;42920;45.306;20.448;2023-09-19T04:07:48;9.73;;;5.13;;
57029;SDS011;42920;45.306;20.448;2023-09-19T04:10:15;8.10;;;5.72;;
57029;SDS011;42920;45.306;20.448;2023-09-19T04:12:50;10.27;;;5.50;;
57029;SDS011;42920;45.306;20.448;2023-09-19T04:15:17;8.20;;;5.47;;
57029;SDS011;42920;45.306;20.448;2023-09-19T04:17:42;12.07;;;5.03;;
57029;SDS011;42920;45.306;20.448;2023-09-19T04:20:08;12.23;;;5.95;;
57029;SDS011;42920;45.306;20.448;2023-09-19T04:22:37;9.77;;;5.35;;
57029;SDS011;42920;45.306;20.448;2023-09-19T04:25:04;6.55;;;4.78;;
57029;SDS011;42920;45.306;20.448;2023-09-19T04:27:31;8.75;;;4.97;;
57029;SDS011;42920;45.306;20.448;2023-09-19T04:29:57;8.88;;;5.63;;
57029;SDS011;42920;45.306;20.448;2023-09-19T04:32:24;10.20;;;5.72;;
57029;SDS011;42920;45.306;20.448;2023-09-19T04:35:01;11.00;;;5.82;;
57029;SDS011;42920;45.306;20.448;2023-09-19T04:37:31;8.23;;;6.25;;
57029;SDS011;42920;45.306;20.448;2023-09-19T04:39:57;10.57;;;5.88;;
57029;SDS011;42920;45.306;20.448;2023-09-19T04:42:23;11.57;;;5.90;;
57029;SDS011;42920;45.306;20.448;2023-09-19T04:44:50;11.50;;;5.47;;
57029;SDS011;42920;45.306;20.448;2023-09-19T04:47:19;11.68;;;5.45;;
57029;SDS011;42920;45.306;20.448;2023-09-19T04:49:47;10.18;;;5.50;;
57029;SDS011;42920;45.306;20.448;2023-09-19T04:52:12;8.88;;;6.00;;
57029;SDS011;42920;45.306;20.448;2023-09-19T04:54:40;14.15;;;6.10;;
57029;SDS011;42920;45.306;20.448;2023-09-19T04:57:06;10.63;;;5.68;;
57029;SDS011;42920;45.306;20.448;2023-09-19T04:59:32;10.20;;;5.38;;
57029;SDS011;42920;45.306;20.448;2023-09-19T05:01:58;10.15;;;6.22;;
57029;SDS011;42920;45.306;20.448;2023-09-19T05:04:24;17.45;;;6.25;;
57029;SDS011;42920;45.306;20.448;2023-09-19T05:06:49;12.35;;;6.03;;
57029;SDS011;42920;45.306;20.448;2023-09-19T05:09:15;11.65;;;5.50;;
57029;SDS011;42920;45.306;20.448;2023-09-19T05:11:45;10.02;;;5.30;;
57029;SDS011;42920;45.306;20.448;2023-09-19T05:14:11;9.48;;;5.20;;
57029;SDS011;42920;45.306;20.448;2023-09-19T05:16:37;11.55;;;5.88;;
57029;SDS011;42920;45.306;20.448;2023-09-19T05:19:02;16.58;;;6.30;;
57029;SDS011;42920;45.306;20.448;2023-09-19T05:21:29;10.93;;;5.97;;
57029;SDS011;42920;45.306;20.448;2023-09-19T05:23:56;17.27;;;6.57;;
57029;SDS011;42920;45.306;20.448;2023-09-19T05:26:21;10.38;;;5.70;;
57029;SDS011;42920;45.306;20.448;2023-09-19T05:28:47;10.05;;;6.10;;
57029;SDS011;42920;45.306;20.448;2023-09-19T05:31:13;10.65;;;5.43;;
57029;SDS011;42920;45.306;20.448;2023-09-19T05:33:40;12.77;;;5.15;;
57029;SDS011;42920;45.306;20.448;2023-09-19T05:36:06;9.55;;;4.55;;
57029;SDS011;42920;45.306;20.448;2023-09-19T05:38:32;10.73;;;5.50;;
57029;SDS011;42920;45.306;20.448;2023-09-19T05:40:58;12.32;;;5.30;;
57029;SDS011;42920;45.306;20.448;2023-09-19T05:43:23;8.88;;;5.82;;
57029;SDS011;42920;45.306;20.448;2023-09-19T05:45:49;9.23;;;5.95;;
57029;SDS011;42920;45.306;20.448;2023-09-19T05:48:17;7.55;;;5.43;;
57029;SDS011;42920;45.306;20.448;2023-09-19T05:50:43;9.15;;;5.03;;
57029;SDS011;42920;45.306;20.448;2023-09-19T05:53:09;14.27;;;6.68;;
57029;SDS011;42920;45.306;20.448;2023-09-19T05:55:39;7.60;;;5.40;;
57029;SDS011;42920;45.306;20.448;2023-09-19T05:58:05;8.32;;;5.60;;
57029;SDS011;42920;45.306;20.448;2023-09-19T06:00:32;9.15;;;5.63;;
57029;SDS011;42920;45.306;20.448;2023-09-19T06:02:58;9.35;;;5.10;;
57029;SDS011;42920;45.306;20.448;2023-09-19T06:05:27;6.65;;;5.00;;
57029;SDS011;42920;45.306;20.448;2023-09-19T06:07:55;11.75;;;5.93;;
57029;SDS011;42920;45.306;20.448;2023-09-19T06:10:25;10.18;;;5.00;;
57029;SDS011;42920;45.306;20.448;2023-09-19T06:12:53;10.18;;;5.97;;
57029;SDS011;42920;45.306;20.448;2023-09-19T06:15:20;7.78;;;5.00;;
57029;SDS011;42920;45.306;20.448;2023-09-19T06:17:48;12.38;;;5.20;;
57029;SDS011;42920;45.306;20.448;2023-09-19T06:20:15;6.90;;;5.32;;
57029;SDS011;42920;45.306;20.448;2023-09-19T06:22:45;9.02;;;5.85;;
57029;SDS011;42920;45.306;20.448;2023-09-19T06:25:11;8.75;;;5.47;;
57029;SDS011;42920;45.306;20.448;2023-09-19T06:27:44;8.13;;;5.32;;
57029;SDS011;42920;45.306;20.448;2023-09-19T06:30:13;9.38;;;5.82;;
57029;SDS011;42920;45.306;20.448;2023-09-19T06:32:42;10.57;;;5.15;;
57029;SDS011;42920;45.306;20.448;2023-09-19T06:35:12;11.65;;;5.30;;
57029;SDS011;42920;45.306;20.448;2023-09-19T06:37:42;12.10;;;5.68;;
57029;SDS011;42920;45.306;20.448;2023-09-19T06:40:12;11.43;;;5.40;;
57029;SDS011;42920;45.306;20.448;2023-09-19T06:42:39;8.00;;;5.22;;
57029;SDS011;42920;45.306;20.448;2023-09-19T06:45:10;9.88;;;5.93;;
57029;SDS011;42920;45.306;20.448;2023-09-19T06:47:38;9.95;;;4.80;;
57029;SDS011;42920;45.306;20.448;2023-09-19T06:50:04;9.05;;;4.75;;
57029;SDS011;42920;45.306;20.448;2023-09-19T06:52:31;9.65;;;5.63;;
57029;SDS011;42920;45.306;20.448;2023-09-19T06:54:58;12.32;;;5.25;;
57029;SDS011;42920;45.306;20.448;2023-09-19T06:57:24;9.93;;;5.28;;
57029;SDS011;42920;45.306;20.448;2023-09-19T06:59:49;10.90;;;5.70;;
57029;SDS011;42920;45.306;20.448;2023-09-19T07:02:15;9.85;;;5.90;;
57029;SDS011;42920;45.306;20.448;2023-09-19T07:04:41;10.85;;;5.57;;
57029;SDS011;42920;45.306;20.448;2023-09-19T07:07:07;12.02;;;5.35;;
57029;SDS011;42920;45.306;20.448;2023-09-19T07:09:39;10.35;;;5.45;;
57029;SDS011;42920;45.306;20.448;2023-09-19T07:12:05;10.70;;;5.60;;
57029;SDS011;42920;45.306;20.448;2023-09-19T07:14:30;12.75;;;5.45;;
57029;SDS011;42920;45.306;20.448;2023-09-19T07:16:57;12.60;;;5.68;;
57029;SDS011;42920;45.306;20.448;2023-09-19T07:19:25;14.50;;;5.68;;
57029;SDS011;42920;45.306;20.448;2023-09-19T07:21:53;11.05;;;5.28;;
57029;SDS011;42920;45.306;20.448;2023-09-19T07:24:19;13.00;;;6.70;;
57029;SDS011;42920;45.306;20.448;2023-09-19T07:26:47;9.20;;;5.25;;
57029;SDS011;42920;45.306;20.448;2023-09-19T07:29:13;12.95;;;5.05;;
57029;SDS011;42920;45.306;20.448;2023-09-19T07:31:39;8.02;;;5.45;;
57029;SDS011;42920;45.306;20.448;2023-09-19T07:34:05;13.40;;;5.88;;
57029;SDS011;42920;45.306;20.448;2023-09-19T07:36:33;13.68;;;5.88;;
57029;SDS011;42920;45.306;20.448;2023-09-19T07:38:59;8.13;;;5.25;;
57029;SDS011;42920;45.306;20.448;2023-09-19T07:41:25;11.70;;;5.63;;
57029;SDS011;42920;45.306;20.448;2023-09-19T07:43:51;12.57;;;5.97;;
57029;SDS011;42920;45.306;20.448;2023-09-19T07:46:17;15.20;;;6.10;;
57029;SDS011;42920;45.306;20.448;2023-09-19T07:48:43;20.35;;;5.90;;
57029;SDS011;42920;45.306;20.448;2023-09-19T07:51:13;12.82;;;5.40;;
57029;SDS011;42920;45.306;20.448;2023-09-19T07:53:41;8.93;;;5.60;;
57029;SDS011;42920;45.306;20.448;2023-09-19T07:56:08;11.18;;;5.45;;
57029;SDS011;42920;45.306;20.448;2023-09-19T07:58:34;11.85;;;5.50;;
57029;SDS011;42920;45.306;20.448;2023-09-19T08:01:03;11.82;;;5.97;;
57029;SDS011;42920;45.306;20.448;2023-09-19T08:03:32;15.30;;;5.95;;
57029;SDS011;42920;45.306;20.448;2023-09-19T08:05:59;13.02;;;6.80;;
57029;SDS011;42920;45.306;20.448;2023-09-19T08:08:25;9.98;;;5.50;;
57029;SDS011;42920;45.306;20.448;2023-09-19T08:10:57;9.35;;;5.50;;
57029;SDS011;42920;45.306;20.448;2023-09-19T08:13:24;12.38;;;6.47;;
57029;SDS011;42920;45.306;20.448;2023-09-19T08:15:50;9.98;;;6.28;;
57029;SDS011;42920;45.306;20.448;2023-09-19T08:18:18;11.13;;;4.90;;
57029;SDS011;42920;45.306;20.448;2023-09-19T08:20:52;11.27;;;5.68;;
57029;SDS011;42920;45.306;20.448;2023-09-19T08:23:18;13.45;;;5.45;;
57029;SDS011;42920;45.306;20.448;2023-09-19T08:25:46;9.98;;;6.07;;
57029;SDS011;42920;45.306;20.448;2023-09-19T08:28:12;12.90;;;5.88;;
57029;SDS011;42920;45.306;20.448;2023-09-19T08:30:43;12.27;;;5.30;;
57029;SDS011;42920;45.306;20.448;2023-09-19T08:33:09;15.70;;;6.47;;
57029;SDS011;42920;45.306;20.448;2023-09-19T08:35:35;18.05;;;6.93;;
57029;SDS011;42920;45.306;20.448;2023-09-19T08:38:03;11.23;;;5.88;;
57029;SDS011;42920;45.306;20.448;2023-09-19T08:40:32;10.68;;;5.25;;
57029;SDS011;42920;45.306;20.448;2023-09-19T08:43:04;17.67;;;6.03;;
57029;SDS011;42920;45.306;20.448;2023-09-19T08:45:29;12.55;;;6.28;;
57029;SDS011;42920;45.306;20.448;2023-09-19T08:51:12;11.00;;;5.15;;
57029;SDS011;42920;45.306;20.448;2023-09-19T08:54:05;9.70;;;5.55;;
57029;SDS011;42920;45.306;20.448;2023-09-19T08:56:32;12.18;;;6.13;;
57029;SDS011;42920;45.306;20.448;2023-09-19T08:59:05;18.27;;;5.90;;
57029;SDS011;42920;45.306;20.448;2023-09-19T09:01:34;12.82;;;6.18;;
57029;SDS011;42920;45.306;20.448;2023-09-19T09:04:01;12.10;;;6.15;;
57029;SDS011;42920;45.306;20.448;2023-09-19T09:06:27;11.63;;;6.95;;
57029;SDS011;42920;45.306;20.448;2023-09-19T09:08:54;14.18;;;5.70;;
57029;SDS011;42920;45.306;20.448;2023-09-19T09:11:20;12.32;;;5.50;;
57029;SDS011;42920;45.306;20.448;2023-09-19T09:13:48;13.75;;;6.30;;
57029;SDS011;42920;45.306;20.448;2023-09-19T09:16:14;16.00;;;6.40;;
57029;SDS011;42920;45.306;20.448;2023-09-19T09:18:44;12.25;;;6.63;;
57029;SDS011;42920;45.306;20.448;2023-09-19T09:21:10;11.60;;;6.10;;
57029;SDS011;42920;45.306;20.448;2023-09-19T09:23:39;13.57;;;6.07;;
57029;SDS011;42920;45.306;20.448;2023-09-19T09:26:05;12.63;;;6.22;;
57029;SDS011;42920;45.306;20.448;2023-09-19T09:28:32;13.57;;;5.95;;
57029;SDS011;42920;45.306;20.448;2023-09-19T09:31:00;11.77;;;6.28;;
57029;SDS011;42920;45.306;20.448;2023-09-19T09:33:37;19.83;;;6.85;;
57029;SDS011;42920;45.306;20.448;2023-09-19T09:36:04;14.68;;;6.82;;
57029;SDS011;42920;45.306;20.448;2023-09-19T09:38:47;16.63;;;7.88;;
57029;SDS011;42920;45.306;20.448;2023-09-19T09:41:20;13.88;;;6.45;;
57029;SDS011;42920;45.306;20.448;2023-09-19T09:44:12;14.32;;;7.30;;
57029;SDS011;42920;45.306;20.448;2023-09-19T09:46:43;11.38;;;7.47;;
57029;SDS011;42920;45.306;20.448;2023-09-19T09:49:22;13.90;;;6.43;;
57029;SDS011;42920;45.306;20.448;2023-09-19T09:52:06;20.73;;;7.28;;
57029;SDS011;42920;45.306;20.448;2023-09-19T09:54:41;11.45;;;5.88;;
57029;SDS011;42920;45.306;20.448;2023-09-19T09:57:23;18.77;;;7.03;;
57029;SDS011;42920;45.306;20.448;2023-09-19T09:59:54;14.13;;;6.57;;
57029;SDS011;42920;45.306;20.448;2023-09-19T10:02:29;24.95;;;7.38;;
57029;SDS011;42920;45.306;20.448;2023-09-19T10:05:22;15.15;;;6.57;;
57029;SDS011;42920;45.306;20.448;2023-09-19T10:10:37;16.77;;;7.05;;
57029;SDS011;42920;45.306;20.448;2023-09-19T10:13:07;13.65;;;5.38;;
57029;SDS011;42920;45.306;20.448;2023-09-19T10:15:37;14.52;;;6.80;;
57029;SDS011;42920;45.306;20.448;2023-09-19T10:18:06;12.32;;;6.18;;
57029;SDS011;42920;45.306;20.448;2023-09-19T10:20:35;16.50;;;6.57;;
57029;SDS011;42920;45.306;20.448;2023-09-19T10:23:07;12.85;;;7.38;;
57029;SDS011;42920;45.306;20.448;2023-09-19T10:25:38;14.13;;;6.70;;
57029;SDS011;42920;45.306;20.448;2023-09-19T10:28:10;15.85;;;6.93;;
57029;SDS011;42920;45.306;20.448;2023-09-19T10:30:40;13.93;;;6.20;;
57029;SDS011;42920;45.306;20.448;2023-09-19T10:33:13;15.55;;;6.82;;
57029;SDS011;42920;45.306;20.448;2023-09-19T10:35:42;18.08;;;7.10;;
57029;SDS011;42920;45.306;20.448;2023-09-19T10:38:10;18.42;;;6.78;;
57029;SDS011;42920;45.306;20.448;2023-09-19T10:40:37;13.55;;;6.68;;
57029;SDS011;42920;45.306;20.448;2023-09-19T10:43:08;24.48;;;7.10;;
57029;SDS011;42920;45.306;20.448;2023-09-19T10:45:37;18.90;;;6.45;;
57029;SDS011;42920;45.306;20.448;2023-09-19T10:48:05;17.10;;;6.55;;
57029;SDS011;42920;45.306;20.448;2023-09-19T10:50:56;19.10;;;6.20;;
57029;SDS011;42920;45.306;20.448;2023-09-19T10:53:54;24.65;;;6.88;;
57029;SDS011;42920;45.306;20.448;2023-09-19T10:56:34;15.32;;;6.70;;
57029;SDS011;42920;45.306;20.448;2023-09-19T10:59:11;12.93;;;6.30;;
57029;SDS011;42920;45.306;20.448;2023-09-19T11:04:22;24.42;;;7.30;;
57029;SDS011;42920;45.306;20.448;2023-09-19T11:14:54;17.30;;;7.78;;
57029;SDS011;42920;45.306;20.448;2023-09-19T11:30:44;17.20;;;6.70;;
57029;SDS011;42920;45.306;20.448;2023-09-19T11:33:17;21.92;;;7.35;;
57029;SDS011;42920;45.306;20.448;2023-09-19T11:46:13;17.40;;;7.18;;
57029;SDS011;42920;45.306;20.448;2023-09-19T11:48:41;12.65;;;6.40;;
57029;SDS011;42920;45.306;20.448;2023-09-19T11:51:11;17.55;;;6.85;;
57029;SDS011;42920;45.306;20.448;2023-09-19T11:53:45;19.30;;;7.03;;
57029;SDS011;42920;45.306;20.448;2023-09-19T11:56:15;24.73;;;7.78;;
57029;SDS011;42920;45.306;20.448;2023-09-19T11:58:43;15.38;;;5.78;;
57029;SDS011;42920;45.306;20.448;2023-09-19T12:01:16;20.30;;;7.53;;
57029;SDS011;42920;45.306;20.448;2023-09-19T12:03:54;26.48;;;7.72;;
57029;SDS011;42920;45.306;20.448;2023-09-19T12:06:23;22.88;;;7.13;;
57029;SDS011;42920;45.306;20.448;2023-09-19T12:08:49;32.13;;;8.15;;
57029;SDS011;42920;45.306;20.448;2023-09-19T12:11:19;26.55;;;6.50;;
57029;SDS011;42920;45.306;20.448;2023-09-19T12:13:46;35.38;;;6.88;;
57029;SDS011;42920;45.306;20.448;2023-09-19T12:16:17;29.35;;;6.72;;
57029;SDS011;42920;45.306;20.448;2023-09-19T12:18:47;21.75;;;6.50;;
57029;SDS011;42920;45.306;20.448;2023-09-19T12:26:29;24.75;;;5.88;;
57029;SDS011;42920;45.306;20.448;2023-09-19T12:29:02;19.25;;;5.35;;
57029;SDS011;42920;45.306;20.448;2023-09-19T12:31:30;26.23;;;6.50;;
57029;SDS011;42920;45.306;20.448;2023-09-19T12:34:01;24.25;;;6.28;;
57029;SDS011;42920;45.306;20.448;2023-09-19T12:36:27;21.38;;;5.78;;
57029;SDS011;42920;45.306;20.448;2023-09-19T12:38:56;21.13;;;5.22;;
57029;SDS011;42920;45.306;20.448;2023-09-19T12:41:24;26.30;;;5.40;;
57029;SDS011;42920;45.306;20.448;2023-09-19T12:43:54;21.48;;;5.32;;
57029;SDS011;42920;45.306;20.448;2023-09-19T12:46:21;19.13;;;5.55;;
57029;SDS011;42920;45.306;20.448;2023-09-19T12:49:36;14.00;;;5.75;;
57029;SDS011;42920;45.306;20.448;2023-09-19T12:51:42;14.10;;;5.25;;
57029;SDS011;42920;45.306;20.448;2023-09-19T12:54:08;26.23;;;5.78;;
57029;SDS011;42920;45.306;20.448;2023-09-19T12:56:42;14.23;;;4.60;;
57029;SDS011;42920;45.306;20.448;2023-09-19T12:59:14;14.43;;;5.47;;
57029;SDS011;42920;45.306;20.448;2023-09-19T13:01:40;24.60;;;5.50;;
57029;SDS011;42920;45.306;20.448;2023-09-19T13:04:16;18.73;;;5.43;;
57029;SDS011;42920;45.306;20.448;2023-09-19T13:06:50;20.63;;;5.85;;
57029;SDS011;42920;45.306;20.448;2023-09-19T13:09:18;19.02;;;4.63;;
57029;SDS011;42920;45.306;20.448;2023-09-19T13:11:45;22.25;;;4.93;;
57029;SDS011;42920;45.306;20.448;2023-09-19T13:14:29;20.90;;;5.13;;
57029;SDS011;42920;45.306;20.448;2023-09-19T13:22:50;12.93;;;5.03;;
57029;SDS011;42920;45.306;20.448;2023-09-19T13:25:17;29.95;;;5.55;;
57029;SDS011;42920;45.306;20.448;2023-09-19T13:27:53;18.42;;;5.30;;
57029;SDS011;42920;45.306;20.448;2023-09-19T13:30:24;18.25;;;5.60;;
57029;SDS011;42920;45.306;20.448;2023-09-19T13:33:09;27.30;;;5.25;;
57029;SDS011;42920;45.306;20.448;2023-09-19T13:35:36;20.98;;;4.60;;
57029;SDS011;42920;45.306;20.448;2023-09-19T13:38:05;13.23;;;3.95;;
57029;SDS011;42920;45.306;20.448;2023-09-19T13:40:34;13.27;;;4.65;;
57029;SDS011;42920;45.306;20.448;2023-09-19T13:43:00;12.65;;;3.17;;
57029;SDS011;42920;45.306;20.448;2023-09-19T13:45:26;12.57;;;4.10;;
57029;SDS011;42920;45.306;20.448;2023-09-19T13:47:55;17.08;;;4.15;;
57029;SDS011;42920;45.306;20.448;2023-09-19T13:50:21;17.20;;;4.40;;
57029;SDS011;42920;45.306;20.448;2023-09-19T13:52:49;20.60;;;6.18;;
57029;SDS011;42920;45.306;20.448;2023-09-19T13:55:18;14.52;;;4.38;;
57029;SDS011;42920;45.306;20.448;2023-09-19T13:57:47;14.52;;;5.10;;
57029;SDS011;42920;45.306;20.448;2023-09-19T14:00:19;22.40;;;4.55;;
57029;SDS011;42920;45.306;20.448;2023-09-19T14:02:46;16.10;;;3.88;;
57029;SDS011;42920;45.306;20.448;2023-09-19T14:05:13;17.40;;;4.18;;
57029;SDS011;42920;45.306;20.448;2023-09-19T14:07:42;17.25;;;3.53;;
57029;SDS011;42920;45.306;20.448;2023-09-19T14:10:08;26.88;;;5.03;;
57029;SDS011;42920;45.306;20.448;2023-09-19T14:12:36;19.05;;;4.18;;
57029;SDS011;42920;45.306;20.448;2023-09-19T14:15:03;5.85;;;2.85;;
57029;SDS011;42920;45.306;20.448;2023-09-19T14:17:29;22.77;;;3.60;;
57029;SDS011;42920;45.306;20.448;2023-09-19T14:19:55;14.02;;;3.50;;
57029;SDS011;42920;45.306;20.448;2023-09-19T14:22:21;9.02;;;3.20;;
57029;SDS011;42920;45.306;20.448;2023-09-19T14:24:47;11.75;;;3.40;;
57029;SDS011;42920;45.306;20.448;2023-09-19T14:27:13;8.00;;;3.90;;
57029;SDS011;42920;45.306;20.448;2023-09-19T14:29:39;8.90;;;3.03;;
57029;SDS011;42920;45.306;20.448;2023-09-19T14:32:04;11.10;;;3.10;;
57029;SDS011;42920;45.306;20.448;2023-09-19T14:34:30;10.57;;;3.28;;
57029;SDS011;42920;45.306;20.448;2023-09-19T14:36:56;7.00;;;2.83;;
57029;SDS011;42920;45.306;20.448;2023-09-19T14:39:22;12.13;;;3.63;;
57029;SDS011;42920;45.306;20.448;2023-09-19T14:41:48;10.02;;;2.85;;
57029;SDS011;42920;45.306;20.448;2023-09-19T14:44:14;9.35;;;3.20;;
57029;SDS011;42920;45.306;20.448;2023-09-19T14:46:41;13.70;;;3.10;;
57029;SDS011;42920;45.306;20.448;2023-09-19T14:49:09;12.88;;;3.92;;
57029;SDS011;42920;45.306;20.448;2023-09-19T14:51:35;7.00;;;2.63;;
57029;SDS011;42920;45.306;20.448;2023-09-19T14:54:03;7.47;;;3.42;;
57029;SDS011;42920;45.306;20.448;2023-09-19T14:56:29;7.15;;;2.20;;
57029;SDS011;42920;45.306;20.448;2023-09-19T14:58:56;11.75;;;3.00;;
57029;SDS011;42920;45.306;20.448;2023-09-19T15:01:21;8.05;;;2.70;;
57029;SDS011;42920;45.306;20.448;2023-09-19T15:03:47;11.05;;;2.80;;
57029;SDS011;42920;45.306;20.448;2023-09-19T15:06:14;5.22;;;1.92;;
57029;SDS011;42920;45.306;20.448;2023-09-19T15:08:44;10.27;;;1.90;;
57029;SDS011;42920;45.306;20.448;2023-09-19T15:11:15;9.38;;;2.38;;
57029;SDS011;42920;45.306;20.448;2023-09-19T15:13:42;6.35;;;2.40;;
57029;SDS011;42920;45.306;20.448;2023-09-19T15:16:10;4.10;;;1.80;;
57029;SDS011;42920;45.306;20.448;2023-09-19T15:18:40;9.85;;;2.53;;
57029;SDS011;42920;45.306;20.448;2023-09-19T15:21:07;11.13;;;2.63;;
57029;SDS011;42920;45.306;20.448;2023-09-19T15:23:34;4.80;;;1.75;;
57029;SDS011;42920;45.306;20.448;2023-09-19T15:26:01;13.38;;;2.30;;
57029;SDS011;42920;45.306;20.448;2023-09-19T15:28:31;6.05;;;2.53;;
57029;SDS011;42920;45.306;20.448;2023-09-19T15:30:59;6.30;;;2.30;;
57029;SDS011;42920;45.306;20.448;2023-09-19T15:33:25;5.50;;;1.90;;
57029;SDS011;42920;45.306;20.448;2023-09-19T15:36:00;7.97;;;2.42;;
57029;SDS011;42920;45.306;20.448;2023-09-19T15:41:18;4.50;;;2.25;;
57029;SDS011;42920;45.306;20.448;2023-09-19T15:43:45;4.60;;;1.88;;